Strona główna
METAR-TAF:

METAR-TAF

Lotnisko :

Port lotniczy Dakar

Dakar, Senegal

Szerokość geograficzna: 14-44N, Długość geograficzna: 017-30W, wysokość: 27 m

Aktualna obserwacja pogody

Raport powstał 27 minut temu, godzina 11:00 UTC
Wiatr 10 kt od północno-północny wschód
Temperatura 24°C
Wilgotność 61%
Ciśnienie 1016 hPa
Widzialność 10 km lub więcej
Brak chmur poniżej 1500 m i brak chmur cumulonimbus

METAR: GOOY 191100Z 02010KT CAVOK 24/16 Q1016

czas: 11:27 (11:27 UTC)

Prognoza

Raport powstał 5 godziny i 57 minut temu, godzina 05:30 UTC
Prognoza ważna od 19 godzina 06 UTC do 20 godzina 12 UTC
Wiatr 8 kt od północ
Widzialność 10 km lub więcej
Brak chmur poniżej 1500 m i brak chmur cumulonimbus

TAF: GOOY 190530Z 1906/2012 01008KT CAVOK

Obserwacja i prognoza pogody dla ponad 4000 lotnisk (raport METAR i TAF).

Dostępne stacje oznaczono żółtymi i czerwonymi punktami na mapie.

Najedź kursorem aby zobaczyć nazwę stacji.

Kliknij aby zobaczyć obserwacje i prognozy pogody.

Aby zmienić mapę: kliknij na zielony przycisk z czarnym krzyżykiem, aby powiększyć; na zielony przycisk z myślnikiem, aby pomniejszyć; na zielone strzałki, aby przejść do map sąsiednich.


METAR-TAF: